Terminal Aerodrome Forecast
Issued by NWS Topeka, KS

Home | Current Version | Previous Version | Text Only | Print | Product List | Glossary Off
Versions: 1 2 3 4 5 6 7 8 9 10 11 12 13 14 15 16 17 18

000
FTUS43 KTOP 201120
TAFTOP
TAF
KTOP 201120Z 2012/2112 21010G20KT 6SM BR OVC008
     FM201500 26011G20KT P6SM BKN010
     FM201900 26013G21KT P6SM BKN020
     FM202200 27014G21KT P6SM BKN035
     FM210200 27009KT P6SM SCT040=

USA.gov is the U.S. government's official web portal to all federal, state and local government web resources and services.